sensor_id;sensor_type;location;lat;lon;timestamp;P1;durP1;ratioP1;P2;durP2;ratioP2
69026;SDS011;56080;47.594;19.116;2023-04-03T00:02:47;5.60;;;2.50;;
69026;SDS011;56080;47.594;19.116;2023-04-03T00:12:46;5.00;;;2.50;;
69026;SDS011;56080;47.594;19.116;2023-04-03T00:22:48;5.60;;;2.80;;
69026;SDS011;56080;47.594;19.116;2023-04-03T00:32:48;6.10;;;2.80;;
69026;SDS011;56080;47.594;19.116;2023-04-03T00:52:49;5.60;;;2.70;;
69026;SDS011;56080;47.594;19.116;2023-04-03T01:02:51;5.70;;;2.70;;
69026;SDS011;56080;47.594;19.116;2023-04-03T01:32:52;6.50;;;3.10;;
69026;SDS011;56080;47.594;19.116;2023-04-03T01:42:52;6.20;;;3.00;;
69026;SDS011;56080;47.594;19.116;2023-04-03T01:52:53;5.60;;;2.60;;
69026;SDS011;56080;47.594;19.116;2023-04-03T02:22:55;5.50;;;2.50;;
69026;SDS011;56080;47.594;19.116;2023-04-03T02:32:57;6.40;;;3.10;;
69026;SDS011;56080;47.594;19.116;2023-04-03T02:42:56;5.80;;;2.60;;
69026;SDS011;56080;47.594;19.116;2023-04-03T02:52:57;5.50;;;2.50;;
69026;SDS011;56080;47.594;19.116;2023-04-03T03:02:58;5.40;;;2.70;;
69026;SDS011;56080;47.594;19.116;2023-04-03T03:13:00;5.20;;;2.40;;
69026;SDS011;56080;47.594;19.116;2023-04-03T03:23:00;5.30;;;2.60;;
69026;SDS011;56080;47.594;19.116;2023-04-03T03:33:00;5.00;;;2.20;;
69026;SDS011;56080;47.594;19.116;2023-04-03T03:43:01;5.20;;;2.60;;
69026;SDS011;56080;47.594;19.116;2023-04-03T03:53:01;5.70;;;2.70;;
69026;SDS011;56080;47.594;19.116;2023-04-03T04:03:02;5.90;;;2.50;;
69026;SDS011;56080;47.594;19.116;2023-04-03T04:23:03;6.20;;;2.60;;
69026;SDS011;56080;47.594;19.116;2023-04-03T04:33:04;5.90;;;2.60;;
69026;SDS011;56080;47.594;19.116;2023-04-03T04:43:05;6.00;;;2.80;;
69026;SDS011;56080;47.594;19.116;2023-04-03T04:53:08;5.80;;;2.70;;
69026;SDS011;56080;47.594;19.116;2023-04-03T05:03:07;6.10;;;2.70;;
69026;SDS011;56080;47.594;19.116;2023-04-03T05:13:06;7.20;;;3.60;;
69026;SDS011;56080;47.594;19.116;2023-04-03T05:23:07;6.10;;;2.70;;
69026;SDS011;56080;47.594;19.116;2023-04-03T05:33:08;5.60;;;2.50;;
69026;SDS011;56080;47.594;19.116;2023-04-03T05:43:08;5.40;;;2.30;;
69026;SDS011;56080;47.594;19.116;2023-04-03T05:53:13;4.90;;;2.20;;
69026;SDS011;56080;47.594;19.116;2023-04-03T06:03:10;4.80;;;2.20;;
69026;SDS011;56080;47.594;19.116;2023-04-03T06:13:11;5.30;;;2.30;;
69026;SDS011;56080;47.594;19.116;2023-04-03T06:23:11;5.00;;;2.10;;
69026;SDS011;56080;47.594;19.116;2023-04-03T06:33:11;4.90;;;2.30;;
69026;SDS011;56080;47.594;19.116;2023-04-03T06:43:12;5.50;;;2.50;;
69026;SDS011;56080;47.594;19.116;2023-04-03T06:53:13;5.10;;;2.30;;
69026;SDS011;56080;47.594;19.116;2023-04-03T07:13:14;4.10;;;1.50;;
69026;SDS011;56080;47.594;19.116;2023-04-03T07:23:16;3.50;;;1.20;;
69026;SDS011;56080;47.594;19.116;2023-04-03T07:33:17;4.10;;;1.50;;
69026;SDS011;56080;47.594;19.116;2023-04-03T07:43:17;4.40;;;1.40;;
69026;SDS011;56080;47.594;19.116;2023-04-03T07:53:18;4.50;;;1.60;;
69026;SDS011;56080;47.594;19.116;2023-04-03T08:03:21;4.00;;;1.40;;
69026;SDS011;56080;47.594;19.116;2023-04-03T08:23:20;3.90;;;1.20;;
69026;SDS011;56080;47.594;19.116;2023-04-03T08:33:20;4.00;;;1.40;;
69026;SDS011;56080;47.594;19.116;2023-04-03T08:43:36;4.40;;;2.00;;
69026;SDS011;56080;47.594;19.116;2023-04-03T08:53:29;4.10;;;1.50;;
69026;SDS011;56080;47.594;19.116;2023-04-03T09:03:28;4.00;;;1.50;;
69026;SDS011;56080;47.594;19.116;2023-04-03T09:33:27;3.90;;;1.30;;
69026;SDS011;56080;47.594;19.116;2023-04-03T10:03:38;3.70;;;1.10;;
69026;SDS011;56080;47.594;19.116;2023-04-03T10:13:32;3.00;;;0.90;;
69026;SDS011;56080;47.594;19.116;2023-04-03T10:23:44;4.40;;;1.70;;
69026;SDS011;56080;47.594;19.116;2023-04-03T10:53:49;3.10;;;1.00;;
69026;SDS011;56080;47.594;19.116;2023-04-03T11:13:41;2.90;;;0.90;;
69026;SDS011;56080;47.594;19.116;2023-04-03T11:23:43;3.20;;;0.90;;
69026;SDS011;56080;47.594;19.116;2023-04-03T11:43:41;3.00;;;0.80;;
69026;SDS011;56080;47.594;19.116;2023-04-03T12:53:46;2.80;;;0.80;;
69026;SDS011;56080;47.594;19.116;2023-04-03T13:03:48;2.90;;;0.80;;
69026;SDS011;56080;47.594;19.116;2023-04-03T13:13:56;3.30;;;1.00;;
69026;SDS011;56080;47.594;19.116;2023-04-03T13:23:51;3.20;;;0.80;;
69026;SDS011;56080;47.594;19.116;2023-04-03T13:34:01;3.90;;;1.10;;
69026;SDS011;56080;47.594;19.116;2023-04-03T13:43:51;3.20;;;1.00;;
69026;SDS011;56080;47.594;19.116;2023-04-03T14:03:56;3.40;;;1.10;;
69026;SDS011;56080;47.594;19.116;2023-04-03T14:13:52;3.10;;;0.90;;
69026;SDS011;56080;47.594;19.116;2023-04-03T14:33:54;3.20;;;0.90;;
69026;SDS011;56080;47.594;19.116;2023-04-03T14:43:55;3.50;;;0.90;;
69026;SDS011;56080;47.594;19.116;2023-04-03T14:53:56;2.80;;;1.00;;
69026;SDS011;56080;47.594;19.116;2023-04-03T15:03:57;3.40;;;1.10;;
69026;SDS011;56080;47.594;19.116;2023-04-03T15:13:58;3.70;;;1.20;;
69026;SDS011;56080;47.594;19.116;2023-04-03T15:23:59;3.80;;;1.30;;
69026;SDS011;56080;47.594;19.116;2023-04-03T15:33:59;3.60;;;1.30;;
69026;SDS011;56080;47.594;19.116;2023-04-03T15:44:00;4.10;;;1.20;;
69026;SDS011;56080;47.594;19.116;2023-04-03T15:54:01;3.60;;;1.30;;
69026;SDS011;56080;47.594;19.116;2023-04-03T16:04:02;4.50;;;1.40;;
69026;SDS011;56080;47.594;19.116;2023-04-03T16:14:03;4.40;;;1.50;;
69026;SDS011;56080;47.594;19.116;2023-04-03T16:34:05;5.00;;;1.60;;
69026;SDS011;56080;47.594;19.116;2023-04-03T16:44:05;4.80;;;1.70;;
69026;SDS011;56080;47.594;19.116;2023-04-03T16:54:06;5.30;;;2.10;;
69026;SDS011;56080;47.594;19.116;2023-04-03T17:04:07;4.20;;;1.70;;
69026;SDS011;56080;47.594;19.116;2023-04-03T17:14:07;4.90;;;1.80;;
69026;SDS011;56080;47.594;19.116;2023-04-03T17:24:10;4.70;;;2.00;;
69026;SDS011;56080;47.594;19.116;2023-04-03T17:34:11;6.40;;;2.00;;
69026;SDS011;56080;47.594;19.116;2023-04-03T17:44:10;4.40;;;1.70;;
69026;SDS011;56080;47.594;19.116;2023-04-03T17:54:11;4.80;;;1.80;;
69026;SDS011;56080;47.594;19.116;2023-04-03T18:04:14;4.90;;;1.80;;
69026;SDS011;56080;47.594;19.116;2023-04-03T18:14:15;4.20;;;1.70;;
69026;SDS011;56080;47.594;19.116;2023-04-03T18:24:15;5.50;;;1.80;;
69026;SDS011;56080;47.594;19.116;2023-04-03T18:34:13;4.70;;;1.90;;
69026;SDS011;56080;47.594;19.116;2023-04-03T18:44:14;5.80;;;1.90;;
69026;SDS011;56080;47.594;19.116;2023-04-03T18:54:16;4.20;;;1.80;;
69026;SDS011;56080;47.594;19.116;2023-04-03T19:04:16;4.80;;;2.00;;
69026;SDS011;56080;47.594;19.116;2023-04-03T19:14:24;5.70;;;2.10;;
69026;SDS011;56080;47.594;19.116;2023-04-03T19:24:16;4.30;;;1.70;;
69026;SDS011;56080;47.594;19.116;2023-04-03T19:34:17;5.00;;;2.00;;
69026;SDS011;56080;47.594;19.116;2023-04-03T19:44:16;4.20;;;1.80;;
69026;SDS011;56080;47.594;19.116;2023-04-03T19:54:16;6.10;;;1.90;;
69026;SDS011;56080;47.594;19.116;2023-04-03T20:04:17;5.00;;;2.10;;
69026;SDS011;56080;47.594;19.116;2023-04-03T20:14:17;4.40;;;1.60;;
69026;SDS011;56080;47.594;19.116;2023-04-03T20:24:17;4.60;;;1.80;;
69026;SDS011;56080;47.594;19.116;2023-04-03T20:34:18;5.10;;;1.90;;
69026;SDS011;56080;47.594;19.116;2023-04-03T20:44:18;4.90;;;1.60;;
69026;SDS011;56080;47.594;19.116;2023-04-03T20:54:19;5.00;;;1.90;;
69026;SDS011;56080;47.594;19.116;2023-04-03T21:04:24;5.30;;;1.50;;
69026;SDS011;56080;47.594;19.116;2023-04-03T21:24:20;5.50;;;2.00;;
69026;SDS011;56080;47.594;19.116;2023-04-03T21:34:20;6.60;;;2.30;;
69026;SDS011;56080;47.594;19.116;2023-04-03T21:44:21;4.60;;;1.90;;
69026;SDS011;56080;47.594;19.116;2023-04-03T21:54:20;5.40;;;1.80;;
69026;SDS011;56080;47.594;19.116;2023-04-03T22:04:21;4.40;;;1.70;;
69026;SDS011;56080;47.594;19.116;2023-04-03T22:14:22;5.00;;;1.80;;
69026;SDS011;56080;47.594;19.116;2023-04-03T22:24:22;4.90;;;1.90;;
69026;SDS011;56080;47.594;19.116;2023-04-03T22:44:22;4.60;;;1.80;;
69026;SDS011;56080;47.594;19.116;2023-04-03T22:54:23;5.20;;;1.80;;
69026;SDS011;56080;47.594;19.116;2023-04-03T23:04:24;4.80;;;1.70;;
69026;SDS011;56080;47.594;19.116;2023-04-03T23:14:24;4.90;;;1.70;;
69026;SDS011;56080;47.594;19.116;2023-04-03T23:24:25;4.60;;;1.60;;
69026;SDS011;56080;47.594;19.116;2023-04-03T23:34:26;5.00;;;1.70;;
69026;SDS011;56080;47.594;19.116;2023-04-03T23:44:25;4.10;;;1.50;;
69026;SDS011;56080;47.594;19.116;2023-04-03T23:54:25;5.30;;;1.60;;
